Time;durP1;ratioP1;P1;durP2;ratioP2;P2;SDS_P1;SDS_P2;PMS_P1;PMS_P2;Temp;Humidity;BMP_temperature;BMP_pressure;BME280_temperature;BME280_humidity;BME280_pressure;Samples;Min_cycle;Max_cycle;Signal;HPM_P1;HPM_P2
2023/05/25 00:01:25;;;;;;;;;;;;;;;21.99;58.34;101648.66;2328615;75;51412;-76
2023/05/25 00:04:29;;;;;;;;;;;;;;;21.98;58.24;101647.00;2356007;74;50827;-76
2023/05/25 00:07:30;;;;;;;;;;;;;;;22.00;58.34;101654.41;2328709;75;22361;-77
2023/05/25 00:10:31;;;;;;;;;;;;;;;21.99;58.32;101650.87;2355996;74;51425;-76
2023/05/25 00:13:33;;;;;;;;;;;;;;;22.00;58.46;101651.70;2356049;74;51586;-77
2023/05/25 00:16:36;;;;;;;;;;;;;;;22.01;58.47;101654.72;2327693;76;50866;-77
2023/05/25 00:19:42;;;;;;;;;;;;;;;22.00;58.54;101652.53;2326524;74;52602;-76
2023/05/25 00:22:43;;;;;;;;;;;;;;;21.98;58.48;101646.48;2297876;76;22223;-76
2023/05/25 00:25:45;;;;;;;;;;;;;;;21.96;58.64;101650.72;2328647;76;51620;-76
2023/05/25 00:28:47;;;;;;;;;;;;;;;21.99;58.72;101651.36;2355702;74;51457;-76
2023/05/25 00:31:49;;;;;;;;;;;;;;;22.00;58.72;101655.75;2319976;74;51407;-76
2023/05/25 00:34:51;;;;;;;;;;;;;;;21.98;58.70;101650.53;2288473;77;50689;-76
2023/05/25 00:37:57;;;;;;;;;;;;;;;21.98;58.79;101644.30;2287841;76;51409;-76
2023/05/25 00:40:56;;;;;;;;;;;;;;;21.98;58.88;101649.70;2287991;77;22391;-76
2023/05/25 00:43:57;;;;;;;;;;;;;;;21.98;58.89;101649.70;2287847;77;51499;-76
2023/05/25 00:47:01;;;;;;;;;;;;;;;21.96;58.91;101652.08;2288140;77;51416;-76
2023/05/25 00:50:03;;;;;;;;;;;;;;;21.96;59.00;101652.08;2288185;76;22328;-76
2023/05/25 00:53:05;;;;;;;;;;;;;;;21.96;58.93;101656.59;2278040;77;51062;-77
2023/05/25 00:56:08;;;;;;;;;;;;;;;21.96;59.00;101651.20;2294524;77;50681;-76
2023/05/25 00:59:10;;;;;;;;;;;;;;;21.96;59.12;101649.86;2294730;77;51538;-76
2023/05/25 01:02:15;;;;;;;;;;;;;;;21.95;59.07;101643.64;2294027;77;50496;-76
2023/05/25 01:05:16;;;;;;;;;;;;;;;21.93;59.26;101650.23;2288767;77;22371;-76
2023/05/25 01:08:18;;;;;;;;;;;;;;;21.95;59.15;101648.20;2288557;77;51552;-74
2023/05/25 01:11:19;;;;;;;;;;;;;;;21.93;59.19;101642.98;2288823;76;50266;-76
2023/05/25 01:14:21;;;;;;;;;;;;;;;21.94;59.13;101633.89;2288819;77;51522;-76
2023/05/25 01:17:24;;;;;;;;;;;;;;;21.94;59.21;101644.67;2262673;77;51041;-76
2023/05/25 01:20:29;;;;;;;;;;;;;;;21.92;59.25;101648.05;2268848;76;50329;-76
2023/05/25 01:23:32;;;;;;;;;;;;;;;21.93;59.21;101642.98;2328506;76;51514;-75
2023/05/25 01:26:35;;;;;;;;;;;;;;;21.93;59.28;101648.37;2327871;76;50810;-75
2023/05/25 01:29:37;;;;;;;;;;;;;;;21.93;59.31;101658.31;2328100;76;51228;-75
2023/05/25 01:32:38;;;;;;;;;;;;;;;21.92;59.25;101653.44;2328857;76;50616;-76
2023/05/25 01:35:40;;;;;;;;;;;;;;;21.91;59.18;101654.95;2328616;76;50710;-76
2023/05/25 01:38:42;;;;;;;;;;;;;;;21.91;59.19;101658.52;2328546;76;50325;-76
2023/05/25 01:41:44;;;;;;;;;;;;;;;21.90;59.30;101659.52;2355329;75;51134;-75
2023/05/25 01:44:45;;;;;;;;;;;;;;;21.89;59.25;101655.67;2355410;75;51493;-76
2023/05/25 01:47:55;;;;;;;;;;;;;;;21.88;59.20;101656.16;2328527;76;51550;-75
2023/05/25 01:51:00;;;;;;;;;;;;;;;21.90;59.14;101659.52;2316831;75;50490;-75
2023/05/25 01:54:04;;;;;;;;;;;;;;;21.89;59.29;101659.72;2300986;76;51016;-75
2023/05/25 01:57:07;;;;;;;;;;;;;;;21.88;59.24;101656.16;2328635;75;50521;-75
2023/05/25 02:00:10;;;;;;;;;;;;;;;21.88;59.27;101658.02;2328736;75;50275;-76
2023/05/25 02:03:12;;;;;;;;;;;;;;;21.86;59.26;101647.44;2328111;75;50675;-75
2023/05/25 02:06:13;;;;;;;;;;;;;;;21.86;59.28;101648.78;2327829;76;51170;-76
2023/05/25 02:09:15;;;;;;;;;;;;;;;21.86;59.26;101644.75;2354603;75;50289;-76
2023/05/25 02:12:16;;;;;;;;;;;;;;;21.86;59.23;101650.14;2328689;75;50741;-75
2023/05/25 02:15:18;;;;;;;;;;;;;;;21.87;59.39;101646.41;2328449;76;51432;-76
2023/05/25 02:18:21;;;;;;;;;;;;;;;21.87;59.27;101647.76;2355207;75;50617;-75
2023/05/25 02:21:22;;;;;;;;;;;;;;;21.86;59.43;101644.75;2315655;75;51514;-75
2023/05/25 02:24:24;;;;;;;;;;;;;;;21.87;59.44;101637.49;2325341;75;50394;-76
2023/05/25 02:27:25;;;;;;;;;;;;;;;21.87;59.57;101645.06;2289344;77;51452;-76
2023/05/25 02:30:27;;;;;;;;;;;;;;;21.86;59.57;101647.44;2263769;77;51418;-75
2023/05/25 02:33:29;;;;;;;;;;;;;;;21.85;59.49;101655.17;2315394;76;50247;-76
2023/05/25 02:36:30;;;;;;;;;;;;;;;21.85;59.51;101655.17;2315121;76;51587;-75
2023/05/25 02:39:32;;;;;;;;;;;;;;;21.84;59.35;101652.68;2289323;77;50333;-75
2023/05/25 02:42:33;;;;;;;;;;;;;;;21.84;59.39;101658.90;2289152;77;51435;-76
2023/05/25 02:45:35;;;;;;;;;;;;;;;21.84;59.36;101656.72;2315528;76;50818;-76
2023/05/25 02:48:37;;;;;;;;;;;;;;;21.84;59.58;101659.41;2289158;77;50250;-76
2023/05/25 02:51:38;;;;;;;;;;;;;;;21.84;59.57;101657.55;2312572;75;51559;-76
2023/05/25 02:54:40;;;;;;;;;;;;;;;21.84;59.59;101648.64;2302368;76;49585;-77
2023/05/25 02:57:42;;;;;;;;;;;;;;;21.82;59.54;101648.80;2270874;77;51586;-76
2023/05/25 03:00:45;;;;;;;;;;;;;;;21.83;59.52;101646.94;2288816;76;51423;-76
2023/05/25 03:03:50;;;;;;;;;;;;;;;21.82;59.57;101650.16;2288726;76;50688;-77
2023/05/25 03:06:50;;;;;;;;;;;;;;;21.83;59.56;101655.03;2288288;77;22839;-76
2023/05/25 03:09:52;;;;;;;;;;;;;;;21.80;59.52;101653.53;2288700;77;50723;-76
2023/05/25 03:12:53;;;;;;;;;;;;;;;21.80;59.44;101658.09;2288746;77;50523;-75
2023/05/25 03:15:55;;;;;;;;;;;;;;;21.80;59.57;101657.57;2288682;77;51477;-74
2023/05/25 03:18:56;;;;;;;;;;;;;;;21.80;59.53;101653.53;2262392;77;52320;-76
2023/05/25 03:21:58;;;;;;;;;;;;;;;21.83;59.56;101655.03;2286316;76;51447;-75
2023/05/25 03:25:00;;;;;;;;;;;;;;;21.80;59.57;101659.44;2291971;76;50272;-75
2023/05/25 03:28:01;;;;;;;;;;;;;;;21.81;59.56;101659.75;2288700;77;50293;-75
2023/05/25 03:31:03;;;;;;;;;;;;;;;21.80;59.54;101656.22;2288785;77;50296;-75
2023/05/25 03:34:05;;;;;;;;;;;;;;;21.80;59.50;101661.61;2262582;77;50491;-78
2023/05/25 03:37:07;;;;;;;;;;;;;;;21.80;59.50;101664.30;2288504;77;51506;-76
2023/05/25 03:40:10;;;;;;;;;;;;;;;21.80;59.50;101665.66;2288820;77;51428;-74
2023/05/25 03:43:11;;;;;;;;;;;;;;;21.79;59.50;101659.95;2238391;77;51206;-76
2023/05/25 03:46:13;;;;;;;;;;;;;;;21.80;59.39;101668.86;2288696;77;50251;-76
2023/05/25 03:49:15;;;;;;;;;;;;;;;21.78;59.50;101666.33;2262769;77;51518;-76
2023/05/25 03:52:16;;;;;;;;;;;;;;;21.80;59.54;101674.25;2319276;76;50271;-76
2023/05/25 03:55:18;;;;;;;;;;;;;;;21.78;59.40;101675.77;2276457;77;51494;-76
2023/05/25 03:58:20;;;;;;;;;;;;;;;21.78;59.42;101678.97;2226088;77;51612;-75
2023/05/25 04:01:25;;;;;;;;;;;;;;;21.78;59.43;101674.94;2251415;78;50230;-75
2023/05/25 04:04:26;;;;;;;;;;;;;;;21.77;59.47;101682.70;2226560;78;22515;-74
2023/05/25 04:07:29;;;;;;;;;;;;;;;21.77;59.49;101685.39;2251353;78;22918;-75
2023/05/25 04:10:31;;;;;;;;;;;;;;;21.77;59.48;101684.87;2251290;77;50793;-74
2023/05/25 04:13:35;;;;;;;;;;;;;;;21.77;59.47;101686.73;2226535;78;51253;-74
2023/05/25 04:16:36;;;;;;;;;;;;;;;21.75;59.59;101692.30;2226775;79;22024;-75
2023/05/25 04:19:37;;;;;;;;;;;;;;;21.75;59.71;101689.59;2225372;78;51133;-74
2023/05/25 04:22:39;;;;;;;;;;;;;;;21.74;59.72;101694.67;2281626;76;50374;-75
2023/05/25 04:25:41;;;;;;;;;;;;;;;21.74;59.63;101694.16;2288978;77;50651;-75
2023/05/25 04:28:42;;;;;;;;;;;;;;;21.76;59.58;101698.03;2288419;77;50371;-75
2023/05/25 04:31:45;;;;;;;;;;;;;;;21.78;59.59;101697.83;2238197;77;51333;-75
2023/05/25 04:34:47;;;;;;;;;;;;;;;21.77;59.48;101699.70;2288801;77;51606;-75
2023/05/25 04:37:48;;;;;;;;;;;;;;;21.77;59.36;101702.39;2288392;77;50411;-75
2023/05/25 04:40:50;;;;;;;;;;;;;;;21.77;59.48;101705.08;2288089;77;50283;-76
2023/05/25 04:43:52;;;;;;;;;;;;;;;21.77;59.27;101705.08;2261581;77;52428;-76
2023/05/25 04:46:54;;;;;;;;;;;;;;;21.77;59.20;101714.52;2259978;78;51413;-76
2023/05/25 04:49:55;;;;;;;;;;;;;;;21.78;59.32;101712.65;2287620;77;51442;-73
2023/05/25 04:52:57;;;;;;;;;;;;;;;21.80;59.10;101711.45;2284283;75;51538;-73
2023/05/25 04:55:59;;;;;;;;;;;;;;;21.83;58.44;101709.74;2301842;76;51170;-73
2023/05/25 04:59:00;;;;;;;;;;;;;;;21.87;58.83;101707.03;2355275;75;51518;-73
2023/05/25 05:02:02;;;;;;;;;;;;;;;21.92;59.47;101708.68;2299114;76;51439;-73
2023/05/25 05:05:04;;;;;;;;;;;;;;;21.95;59.20;101708.31;2287672;77;51538;-73
2023/05/25 05:08:05;;;;;;;;;;;;;;;21.98;59.33;101704.42;2235344;78;52367;-73
2023/05/25 05:11:07;;;;;;;;;;;;;;;22.00;59.42;101702.39;2260370;78;50610;-72
2023/05/25 05:14:08;;;;;;;;;;;;;;;22.05;59.39;101700.52;2287701;76;50635;-74
2023/05/25 05:17:10;;;;;;;;;;;;;;;22.09;59.41;101700.46;2287839;77;51549;-75
2023/05/25 05:20:12;;;;;;;;;;;;;;;22.18;59.34;101706.12;2287348;77;50267;-75
2023/05/25 05:23:14;;;;;;;;;;;;;;;22.39;58.25;101711.69;2283179;76;50286;-75
2023/05/25 05:26:16;;;;;;;;;;;;;;;22.46;56.52;101713.67;2351113;74;51589;-75
2023/05/25 05:29:19;;;;;;;;;;;;;;;22.44;55.52;101709.80;2288848;76;51351;-75
2023/05/25 05:32:20;;;;;;;;;;;;;;;22.48;54.82;101713.82;2235890;78;51582;-75
2023/05/25 05:35:22;;;;;;;;;;;;;;;22.50;54.24;101717.15;2261035;78;50307;-74
2023/05/25 05:38:24;;;;;;;;;;;;;;;22.49;53.75;101720.88;2259759;77;50644;-76
2023/05/25 05:41:26;;;;;;;;;;;;;;;22.41;54.08;101722.83;2260217;78;50419;-74
2023/05/25 05:44:27;;;;;;;;;;;;;;;22.42;54.54;101725.84;2235686;77;52606;-73
2023/05/25 05:47:29;;;;;;;;;;;;;;;22.42;55.04;101729.88;2260029;77;50626;-74
2023/05/25 05:50:31;;;;;;;;;;;;;;;22.46;55.35;101732.04;2260234;77;51656;-75
2023/05/25 05:53:34;;;;;;;;;;;;;;;22.52;55.61;101733.16;2302782;76;52247;-74
2023/05/25 05:56:35;;;;;;;;;;;;;;;22.55;55.66;101735.48;2301755;76;52642;-75
2023/05/25 05:59:37;;;;;;;;;;;;;;;22.60;55.77;101742.52;2328573;76;51537;-75
2023/05/25 06:02:38;;;;;;;;;;;;;;;22.67;55.76;101745.34;2324841;74;50163;-75
2023/05/25 06:05:40;;;;;;;;;;;;;;;22.71;55.71;101746.14;2289839;77;50281;-75
2023/05/25 06:08:42;;;;;;;;;;;;;;;22.74;55.64;101752.52;2237692;77;50063;-75
2023/05/25 06:11:43;;;;;;;;;;;;;;;22.78;55.54;101757.02;2289804;77;50293;-76
2023/05/25 06:14:48;;;;;;;;;;;;;;;22.78;55.50;101754.31;2262630;77;50274;-75
2023/05/25 06:17:48;;;;;;;;;;;;;;;22.81;55.46;101756.64;2289512;76;22378;-76
2023/05/25 06:20:50;;;;;;;;;;;;;;;22.87;55.35;101758.63;2302216;76;53318;-74
2023/05/25 06:23:51;;;;;;;;;;;;;;;22.85;55.28;101754.43;2290229;76;51432;-73
2023/05/25 06:26:53;;;;;;;;;;;;;;;22.86;55.30;101760.14;2287199;77;50044;-74
2023/05/25 06:29:54;;;;;;;;;;;;;;;22.88;55.19;101753.53;2261333;77;50380;-74
2023/05/25 06:32:56;;;;;;;;;;;;;;;22.91;55.18;101754.52;2262412;77;51145;-74
2023/05/25 06:35:59;;;;;;;;;;;;;;;22.95;55.10;101763.09;2291298;76;51412;-76
2023/05/25 06:39:01;;;;;;;;;;;;;;;22.98;55.03;101764.10;2298190;77;50759;-74
2023/05/25 06:42:02;;;;;;;;;;;;;;;22.98;54.97;101770.33;2287922;77;50520;-76
2023/05/25 06:45:04;;;;;;;;;;;;;;;23.02;54.91;101766.77;2262586;77;51433;-75
2023/05/25 06:48:06;;;;;;;;;;;;;;;23.02;54.91;101768.12;2226147;78;50163;-74
2023/05/25 06:51:08;;;;;;;;;;;;;;;23.02;54.92;101770.81;2283336;76;50634;-75
2023/05/25 06:54:10;;;;;;;;;;;;;;;23.03;54.93;101773.83;2297199;76;51500;-75
2023/05/25 06:57:12;;;;;;;;;;;;;;;23.05;54.82;101767.74;2329220;76;50344;-76
2023/05/25 07:00:15;;;;;;;;;;;;;;;23.06;54.73;101765.87;2329670;76;50255;-75
2023/05/25 07:03:17;;;;;;;;;;;;;;;23.10;54.59;101762.63;2329665;76;50699;-78
2023/05/25 07:06:19;;;;;;;;;;;;;;;23.10;54.57;101768.02;2329676;76;50627;-77
2023/05/25 07:09:21;;;;;;;;;;;;;;;23.09;54.52;101771.73;2356929;75;51669;-78
2023/05/25 07:12:23;;;;;;;;;;;;;;;23.11;54.47;101772.91;2356995;75;50719;-78
2023/05/25 07:15:24;;;;;;;;;;;;;;;23.10;54.41;101763.97;2356898;75;50598;-76
2023/05/25 07:18:26;;;;;;;;;;;;;;;23.13;54.40;101770.34;2355529;75;51445;-75
2023/05/25 07:21:29;;;;;;;;;;;;;;;23.13;54.31;101768.99;2315316;74;52636;-75
2023/05/25 07:24:32;;;;;;;;;;;;;;;23.15;54.28;101769.66;2326889;75;50366;-76
2023/05/25 07:27:34;;;;;;;;;;;;;;;23.15;54.15;101776.41;2324415;76;50318;-77
2023/05/25 07:30:36;;;;;;;;;;;;;;;23.17;54.12;101771.66;2349346;74;51647;-76
2023/05/25 07:33:38;;;;;;;;;;;;;;;23.17;54.11;101772.14;2322009;76;50892;-74
2023/05/25 07:36:39;;;;;;;;;;;;;;;23.16;54.10;101775.37;2324579;75;50411;-76
2023/05/25 07:39:41;;;;;;;;;;;;;;;23.16;54.06;101775.37;2326382;75;51233;-76
2023/05/25 07:42:42;;;;;;;;;;;;;;;23.15;54.01;101776.92;2324277;75;50619;-75
2023/05/25 07:45:44;;;;;;;;;;;;;;;23.17;53.95;101781.11;2321870;75;52329;-75
2023/05/25 07:48:46;;;;;;;;;;;;;;;23.13;54.05;101781.14;2324030;76;51468;-76
2023/05/25 07:51:47;;;;;;;;;;;;;;;23.08;54.07;101785.43;2304249;75;50203;-75
2023/05/25 07:54:49;;;;;;;;;;;;;;;22.99;54.22;101791.41;2269759;78;50277;-75
2023/05/25 07:57:50;;;;;;;;;;;;;;;22.97;54.25;101789.42;2226958;77;51143;-75
2023/05/25 08:00:52;;;;;;;;;;;;;;;23.02;54.05;101785.66;2252228;77;50630;-75
2023/05/25 08:03:53;;;;;;;;;;;;;;;22.97;54.14;101792.13;2270923;78;51469;-75
2023/05/25 08:06:56;;;;;;;;;;;;;;;23.01;53.98;101789.37;2270683;77;50572;-76
2023/05/25 08:09:57;;;;;;;;;;;;;;;23.00;54.01;101790.41;2269068;78;50792;-76
2023/05/25 08:12:59;;;;;;;;;;;;;;;23.02;53.96;101791.06;2254891;77;51473;-75
2023/05/25 08:16:00;;;;;;;;;;;;;;;23.03;53.89;101788.67;2252711;77;50340;-76
2023/05/25 08:19:02;;;;;;;;;;;;;;;23.03;53.86;101790.03;2271012;78;50624;-75
2023/05/25 08:22:04;;;;;;;;;;;;;;;23.03;53.84;101787.33;2272741;76;51437;-75
2023/05/25 08:25:06;;;;;;;;;;;;;;;23.00;53.91;101788.53;2350153;74;50753;-76
2023/05/25 08:28:08;;;;;;;;;;;;;;;22.96;53.94;101789.88;2355306;75;51709;-76
2023/05/25 08:31:10;;;;;;;;;;;;;;;22.94;53.98;101785.69;2329091;75;51551;-75
2023/05/25 08:34:12;;;;;;;;;;;;;;;22.93;53.93;101789.42;2328568;76;51771;-76
2023/05/25 08:37:13;;;;;;;;;;;;;;;22.88;54.06;101790.48;2355577;75;50524;-76
2023/05/25 08:40:15;;;;;;;;;;;;;;;22.85;54.08;101794.91;2328797;76;50719;-76
2023/05/25 08:43:17;;;;;;;;;;;;;;;22.81;54.20;101793.94;2355464;75;51524;-75
2023/05/25 08:46:29;;;;;;;;;;;;;;;22.78;54.19;101802.37;2355655;75;51122;-75
2023/05/25 08:49:30;;;;;;;;;;;;;;;22.76;54.21;101795.00;2355443;75;51511;-75
2023/05/25 08:52:32;;;;;;;;;;;;;;;22.76;54.20;101792.30;2316308;75;50739;-75
2023/05/25 08:55:35;;;;;;;;;;;;;;;22.76;54.19;101791.43;2329658;75;51389;-76
2023/05/25 08:58:39;;;;;;;;;;;;;;;22.79;54.19;101797.32;2328130;76;49689;-76
2023/05/25 09:01:42;;;;;;;;;;;;;;;22.77;54.17;101789.91;2328969;76;50689;-76
2023/05/25 09:04:44;;;;;;;;;;;;;;;22.77;54.15;101796.66;2328866;76;50654;-76
2023/05/25 09:07:45;;;;;;;;;;;;;;;22.77;54.16;101792.61;2328680;76;51434;-76
2023/05/25 09:10:47;;;;;;;;;;;;;;;22.79;54.07;101787.05;2328298;76;51043;-76
2023/05/25 09:13:48;;;;;;;;;;;;;;;22.79;54.03;101791.92;2329018;75;50260;-77
2023/05/25 09:16:50;;;;;;;;;;;;;;;22.77;54.09;101796.66;2328881;75;50336;-76
2023/05/25 09:19:52;;;;;;;;;;;;;;;22.76;54.08;101796.83;2327782;76;50407;-75
2023/05/25 09:22:53;;;;;;;;;;;;;;;22.73;54.13;101797.20;2276049;77;51076;-75
2023/05/25 09:25:55;;;;;;;;;;;;;;;22.70;54.15;101801.10;2237878;76;51244;-75
2023/05/25 09:28:56;;;;;;;;;;;;;;;22.70;54.16;101802.97;2288443;77;50642;-75
2023/05/25 09:31:59;;;;;;;;;;;;;;;22.69;54.17;101798.09;2288716;77;51600;-75
2023/05/25 09:35:11;;;;;;;;;;;;;;;22.69;54.09;101798.09;2288635;77;50141;-76
2023/05/25 09:38:14;;;;;;;;;;;;;;;22.70;54.09;101799.75;2287721;76;51497;-76
2023/05/25 09:41:15;;;;;;;;;;;;;;;22.70;54.06;101801.10;2262714;77;51486;-76
2023/05/25 09:44:17;;;;;;;;;;;;;;;22.66;54.12;101794.41;2288785;77;50187;-75
2023/05/25 09:47:19;;;;;;;;;;;;;;;22.67;54.14;101801.98;2237825;77;51237;-75
2023/05/25 09:50:20;;;;;;;;;;;;;;;22.67;54.08;101798.78;2295195;76;50280;-75
2023/05/25 09:53:22;;;;;;;;;;;;;;;22.67;54.10;101801.98;2312049;76;50596;-75
2023/05/25 09:56:23;;;;;;;;;;;;;;;22.67;54.04;101806.04;2288478;77;51443;-75
2023/05/25 09:59:25;;;;;;;;;;;;;;;22.69;54.00;101806.19;2238078;77;49701;-74
2023/05/25 10:02:27;;;;;;;;;;;;;;;22.68;53.99;101811.23;2288845;77;50648;-73
2023/05/25 10:05:28;;;;;;;;;;;;;;;22.69;53.97;101809.40;2262476;77;50314;-75
2023/05/25 10:08:30;;;;;;;;;;;;;;;22.69;53.97;101809.40;2288326;77;50413;-75
2023/05/25 10:11:32;;;;;;;;;;;;;;;22.64;54.07;101815.85;2262526;77;52387;-75
2023/05/25 10:14:34;;;;;;;;;;;;;;;22.66;53.97;101811.95;2288569;77;51422;-76
2023/05/25 10:17:36;;;;;;;;;;;;;;;22.70;53.86;101810.55;2288324;77;50349;-74
2023/05/25 10:20:37;;;;;;;;;;;;;;;22.68;53.88;101815.28;2288110;77;50338;-74
2023/05/25 10:23:40;;;;;;;;;;;;;;;22.68;53.90;101817.97;2298082;76;50860;-74
2023/05/25 10:26:42;;;;;;;;;;;;;;;22.68;53.88;101815.80;2355137;75;50679;-74
2023/05/25 10:29:44;;;;;;;;;;;;;;;22.67;53.89;101818.17;2328901;76;50283;-74
2023/05/25 10:32:45;;;;;;;;;;;;;;;22.65;53.88;101823.74;2328826;76;51397;-74
2023/05/25 10:35:47;;;;;;;;;;;;;;;22.66;53.85;101823.22;2355690;75;51654;-74
2023/05/25 10:38:50;;;;;;;;;;;;;;;22.64;53.89;101814.50;2328461;75;50442;-75
2023/05/25 10:41:52;;;;;;;;;;;;;;;22.59;53.96;101814.52;2328732;76;51538;-73
2023/05/25 10:44:54;;;;;;;;;;;;;;;22.58;54.00;101817.39;2328814;76;51485;-74
2023/05/25 10:47:55;;;;;;;;;;;;;;;22.57;54.05;101808.47;2328160;76;51132;-74
2023/05/25 10:50:57;;;;;;;;;;;;;;;22.54;54.12;101810.70;2349578;74;50626;-74
2023/05/25 10:54:00;;;;;;;;;;;;;;;22.56;54.06;101810.02;2301671;76;51462;-74
2023/05/25 10:57:09;;;;;;;;;;;;;;;22.58;53.98;101813.34;2288492;77;50496;-73
2023/05/25 11:00:12;;;;;;;;;;;;;;;22.55;54.04;101811.02;2263246;77;52444;-74
2023/05/25 11:03:13;;;;;;;;;;;;;;;22.56;53.99;101811.36;2314803;76;50668;-74
2023/05/25 11:06:15;;;;;;;;;;;;;;;22.55;54.01;101811.02;2288864;77;50401;-75
2023/05/25 11:09:24;;;;;;;;;;;;;;;22.51;54.06;101811.89;2288916;76;51448;-76
2023/05/25 11:12:25;;;;;;;;;;;;;;;22.51;54.07;101815.11;2262716;76;52454;-75
2023/05/25 11:15:27;;;;;;;;;;;;;;;22.51;54.03;101806.50;2288448;76;52392;-75
2023/05/25 11:18:32;;;;;;;;;;;;;;;22.50;54.04;101805.33;2314537;75;50396;-75
2023/05/25 11:21:39;;;;;;;;;;;;;;;22.52;54.01;101812.73;2309916;76;50730;-75
2023/05/25 11:24:47;;;;;;;;;;;;;;;22.52;53.98;101811.38;2266790;77;52392;-75
2023/05/25 11:27:46;;;;;;;;;;;;;;;22.49;54.02;101812.58;2287460;76;22415;-74
2023/05/25 11:30:48;;;;;;;;;;;;;;;22.52;53.94;101810.03;2262705;77;51535;-75
2023/05/25 11:33:50;;;;;;;;;;;;;;;22.53;53.91;101820.66;2288684;77;50320;-75
2023/05/25 11:36:56;;;;;;;;;;;;;;;22.53;53.90;101807.65;2288281;77;51542;-75
2023/05/25 11:39:58;;;;;;;;;;;;;;;22.53;53.90;101814.39;2262461;77;51276;-75
2023/05/25 11:43:00;;;;;;;;;;;;;;;22.53;53.84;101813.05;2261801;77;50514;-75
2023/05/25 11:46:02;;;;;;;;;;;;;;;22.51;53.82;101815.94;2288619;77;52589;-75
2023/05/25 11:49:03;;;;;;;;;;;;;;;22.52;53.78;101805.47;2287892;77;50299;-75
2023/05/25 11:52:08;;;;;;;;;;;;;;;22.56;53.78;101800.57;2275707;76;51716;-76
2023/05/25 11:55:13;;;;;;;;;;;;;;;22.52;53.82;101801.42;2354716;75;51534;-75
2023/05/25 11:58:14;;;;;;;;;;;;;;;22.48;53.88;101802.83;2328186;75;51601;-74
2023/05/25 12:01:22;;;;;;;;;;;;;;;22.49;53.90;101803.66;2328651;76;51466;-74
2023/05/25 12:04:24;;;;;;;;;;;;;;;22.49;53.81;101803.14;2328047;74;52592;-73
2023/05/25 12:07:27;;;;;;;;;;;;;;;22.49;53.81;101799.09;2355119;75;50615;-74
2023/05/25 12:10:28;;;;;;;;;;;;;;;22.51;53.80;101785.44;2326883;76;50845;-74
2023/05/25 12:13:30;;;;;;;;;;;;;;;22.53;53.76;101800.42;2355341;75;51485;-74
2023/05/25 12:16:33;;;;;;;;;;;;;;;22.55;53.64;101786.73;2327771;76;53024;-76
2023/05/25 12:19:35;;;;;;;;;;;;;;;22.57;53.62;101794.14;2326974;75;50516;-74
2023/05/25 12:22:40;;;;;;;;;;;;;;;22.54;53.69;101789.12;2305762;76;50311;-74
2023/05/25 12:25:42;;;;;;;;;;;;;;;22.51;53.77;101790.84;2288711;77;51588;-73
2023/05/25 12:29:03;;;;;;;;;;;;;;;22.45;53.93;101782.94;2262240;77;51118;-74
2023/05/25 12:32:05;;;;;;;;;;;;;;;22.43;53.98;101797.14;2288770;77;51643;-74
2023/05/25 12:35:07;;;;;;;;;;;;;;;22.44;54.00;101791.23;2262878;77;50131;-74
2023/05/25 12:38:09;;;;;;;;;;;;;;;22.45;53.93;101795.07;2262266;77;51560;-74
2023/05/25 12:41:11;;;;;;;;;;;;;;;22.45;53.95;101794.23;2262733;77;51583;-73
2023/05/25 12:44:23;;;;;;;;;;;;;;;22.46;53.92;101795.42;2263115;77;51588;-74
2023/05/25 12:47:27;;;;;;;;;;;;;;;22.46;53.93;101799.98;2288388;77;50729;-75
2023/05/25 12:50:29;;;;;;;;;;;;;;;22.49;53.87;101799.61;2288634;76;51525;-74
2023/05/25 12:53:30;;;;;;;;;;;;;;;22.49;53.83;101799.61;2268294;76;51059;-74
2023/05/25 12:56:32;;;;;;;;;;;;;;;22.49;53.82;101791.52;2328687;76;50611;-75
2023/05/25 12:59:34;;;;;;;;;;;;;;;22.49;53.75;101788.31;2329023;76;51551;-75
2023/05/25 13:02:35;;;;;;;;;;;;;;;22.51;53.78;101798.92;2328859;76;50305;-75
2023/05/25 13:05:37;;;;;;;;;;;;;;;22.53;53.66;101786.94;2301846;76;51132;-74
2023/05/25 13:08:39;;;;;;;;;;;;;;;22.53;53.76;101788.77;2355493;75;51441;-74
2023/05/25 13:11:40;;;;;;;;;;;;;;;22.53;53.68;101781.55;2328905;76;50240;-75
2023/05/25 13:14:42;;;;;;;;;;;;;;;22.49;53.77;101785.61;2355716;75;50138;-75
2023/05/25 13:17:43;;;;;;;;;;;;;;;22.43;53.86;101782.78;2328234;76;51854;-75
2023/05/25 13:20:45;;;;;;;;;;;;;;;22.40;53.98;101786.69;2348753;75;50071;-74
2023/05/25 13:23:47;;;;;;;;;;;;;;;22.37;54.04;101782.48;2301937;75;51604;-75
2023/05/25 13:26:49;;;;;;;;;;;;;;;22.42;54.00;101775.73;2288238;76;51681;-76
2023/05/25 13:29:51;;;;;;;;;;;;;;;22.49;53.85;101768.08;2262752;77;51271;-75
2023/05/25 13:32:52;;;;;;;;;;;;;;;22.45;53.89;101765.41;2262615;77;51499;-75
2023/05/25 13:35:57;;;;;;;;;;;;;;;22.45;53.89;101768.10;2288628;77;51427;-73
2023/05/25 13:38:58;;;;;;;;;;;;;;;22.45;53.99;101765.92;2288344;77;50718;-75
2023/05/25 13:42:00;;;;;;;;;;;;;;;22.45;53.99;101767.27;2262656;77;51004;-74
2023/05/25 13:45:02;;;;;;;;;;;;;;;22.50;53.92;101774.30;2262651;77;50387;-74
2023/05/25 13:48:03;;;;;;;;;;;;;;;22.49;53.96;101760.50;2261742;77;51408;-75
2023/05/25 13:51:05;;;;;;;;;;;;;;;22.45;54.07;101768.62;2262676;77;51411;-75
2023/05/25 13:54:07;;;;;;;;;;;;;;;22.42;54.18;101764.42;2249701;77;50894;-74
2023/05/25 13:57:08;;;;;;;;;;;;;;;22.41;54.19;101768.67;2276016;77;51521;-74
2023/05/25 14:00:10;;;;;;;;;;;;;;;22.44;54.12;101762.39;2276207;77;51436;-74
2023/05/25 14:03:12;;;;;;;;;;;;;;;22.47;54.08;101770.11;2276589;77;50256;-74
2023/05/25 14:06:14;;;;;;;;;;;;;;;22.49;54.06;101763.20;2225950;79;52437;-75
2023/05/25 14:09:16;;;;;;;;;;;;;;;22.50;54.04;101760.30;2276102;77;51550;-73
2023/05/25 14:12:17;;;;;;;;;;;;;;;22.52;53.99;101753.39;2251051;79;51531;-73
2023/05/25 14:15:19;;;;;;;;;;;;;;;22.52;54.02;101762.83;2276694;77;50666;-74
2023/05/25 14:18:20;;;;;;;;;;;;;;;22.52;54.00;101755.57;2250005;78;51115;-73
2023/05/25 14:21:22;;;;;;;;;;;;;;;22.55;53.97;101746.27;2300959;76;50749;-73
2023/05/25 14:24:24;;;;;;;;;;;;;;;22.52;54.02;101748.00;2301050;76;50289;-74
2023/05/25 14:27:25;;;;;;;;;;;;;;;22.51;54.07;101751.73;2288280;76;50267;-75
2023/05/25 14:30:27;;;;;;;;;;;;;;;22.49;54.08;101751.06;2262678;77;51545;-74
2023/05/25 14:33:28;;;;;;;;;;;;;;;22.45;54.19;101753.78;2288522;77;51416;-74
2023/05/25 14:36:30;;;;;;;;;;;;;;;22.45;54.18;101755.13;2287982;77;51355;-75
2023/05/25 14:39:32;;;;;;;;;;;;;;;22.43;54.20;101751.28;2262420;77;50691;-75
2023/05/25 14:42:33;;;;;;;;;;;;;;;22.47;54.11;101747.70;2262596;77;52479;-75
2023/05/25 14:45:35;;;;;;;;;;;;;;;22.45;54.16;101745.17;2262431;77;51459;-74
2023/05/25 14:48:36;;;;;;;;;;;;;;;22.43;54.17;101746.38;2262495;77;51677;-73
2023/05/25 14:51:38;;;;;;;;;;;;;;;22.42;54.18;101737.97;2291863;76;51455;-74
2023/05/25 14:54:43;;;;;;;;;;;;;;;22.46;54.13;101747.39;2336366;76;51628;-75
2023/05/25 14:57:43;;;;;;;;;;;;;;;22.49;54.06;101741.63;2358012;74;22798;-74
2023/05/25 15:00:44;;;;;;;;;;;;;;;22.51;54.02;101749.03;2328846;75;50223;-74
2023/05/25 15:03:46;;;;;;;;;;;;;;;22.49;54.30;101747.02;2294681;76;50244;-71
2023/05/25 15:06:48;;;;;;;;;;;;;;;22.48;55.32;101744.84;2288846;76;52324;-72
2023/05/25 15:09:49;;;;;;;;;;;;;;;22.50;55.65;101740.59;2314852;76;50334;-74
2023/05/25 15:12:51;;;;;;;;;;;;;;;22.52;54.97;101746.64;2315666;76;51405;-74
2023/05/25 15:15:55;;;;;;;;;;;;;;;22.51;54.81;101733.67;2288764;76;51600;-73
2023/05/25 15:18:56;;;;;;;;;;;;;;;22.53;54.76;101728.08;2314291;76;22490;-74
2023/05/25 15:21:57;;;;;;;;;;;;;;;22.55;54.62;101724.70;2283646;76;50265;-75
2023/05/25 15:24:59;;;;;;;;;;;;;;;22.57;54.58;101732.10;2362134;74;50412;-74
2023/05/25 15:28:00;;;;;;;;;;;;;;;22.57;54.49;101734.80;2328130;75;50427;-73
2023/05/25 15:31:02;;;;;;;;;;;;;;;22.57;54.45;101733.45;2321953;76;52474;-73
2023/05/25 15:34:04;;;;;;;;;;;;;;;22.57;54.44;101734.80;2349156;74;51529;-74